WetterOnline ( https://www.wetteronline.ch )

Wetter aktuell Altenstadt

Aktuelles Wetter: Weiden (439m)

6-stündlich | Neueste Meldungen
Ortszeit Temperatur Wetter
Mo, 09.12. 7:00 5.4° C bedeckt
Mo, 09.12. 1:00 6.6° C leichter Regen
So, 08.12. 19:00 7.1° C bedeckt
So, 08.12. 13:00 6.8° C bedeckt
So, 08.12. 7:00 5.2° C bedeckt
So, 08.12. 1:00 5.2° C bedeckt
Sa, 07.12. 19:00 4.9° C bedeckt
Sa, 07.12. 13:00 6.2° C bedeckt
Ortszeit Temperatur Wetter
Mo, 09.12. 11:30 6.2° C bewölkt
Mo, 09.12. 11:20 6.2° C bewölkt
Mo, 09.12. 11:10 6.7° C bewölkt
Mo, 09.12. 11:00 6.1° C bedeckt
Mo, 09.12. 10:50 6.1° C bedeckt
Mo, 09.12. 10:40 6.0° C bedeckt
Mo, 09.12. 10:30 5.8° C bewölkt
Mo, 09.12. 10:00 5.8° C fast wolkenlos
Mo, 09.12. 9:30 5.0° C wolkenlos
Mo, 09.12. 9:00 4.1° C wolkig
Mo, 09.12. 8:30 4.9° C bewölkt
Ortszeit Relative Feuchte Sichtweite
Mo, 09.12. 7:00 84% 45 km
Mo, 09.12. 1:00 91% 9 km
So, 08.12. 19:00 84% >70 km
So, 08.12. 13:00 80% >70 km
So, 08.12. 7:00 89% 60 km
So, 08.12. 1:00 93% 40 km
Sa, 07.12. 19:00 94% 40 km
Sa, 07.12. 13:00 93% 45 km
Ortszeit Relative Feuchte Sichtweite
Mo, 09.12. 11:30 77% 60 km
Mo, 09.12. 11:20 77% -
Mo, 09.12. 11:10 76% -
Mo, 09.12. 11:00 79% 60 km
Mo, 09.12. 10:50 79% -
Mo, 09.12. 10:40 81% -
Mo, 09.12. 10:30 79% 55 km
Mo, 09.12. 10:00 77% 65 km
Mo, 09.12. 9:30 82% 60 km
Mo, 09.12. 9:00 87% -
Mo, 09.12. 8:30 82% 60 km
Ortszeit Niederschlagsmenge Niederschlagsart
Mo, 09.12. 7:00 3 l/m2 in 12 Std. Regen
Mo, 09.12. 1:00 3 l/m2 in 6 Std. Regenschauer
So, 08.12. 19:00 0.4 l/m2 in 12 Std. Regen
So, 08.12. 13:00 0.0 l/m2 in 6 Std. -
So, 08.12. 7:00 0.1 l/m2 in 12 Std. Sprühregen
So, 08.12. 1:00 0.1 l/m2 in 6 Std. Regen
Sa, 07.12. 19:00 1 l/m2 in 12 Std. Regen
Sa, 07.12. 13:00 1 l/m2 in 6 Std. Regen
Ortszeit Niederschlagsmenge Niederschlagsart
Mo, 09.12. 11:30 0.0 l/m2 in 1 Std. -
Mo, 09.12. 11:20 keine Meldung -
Mo, 09.12. 11:10 keine Meldung -
Mo, 09.12. 11:00 0.0 l/m2 in 1 Std. -
Mo, 09.12. 10:50 keine Meldung -
Mo, 09.12. 10:40 keine Meldung -
Mo, 09.12. 10:30 0.0 l/m2 in 1 Std. -
Mo, 09.12. 10:00 0.0 l/m2 in 1 Std. Regen
Mo, 09.12. 9:30 0.0 l/m2 in 1 Std. -
Mo, 09.12. 9:00 0.0 l/m2 in 1 Std. -
Mo, 09.12. 8:30 0.0 l/m2 in 1 Std. -
Ortszeit Stärke Spitze Richtung
km/h Bft. km/h Grad Sektor
Mo, 09.12. 7:00 11 2 29 180° S
Mo, 09.12. 1:00 22 4 50 280° W
So, 08.12. 19:00 14 3 29 190° S
So, 08.12. 13:00 13 3 35 200° S
So, 08.12. 7:00 14 3 29 210° SW
So, 08.12. 1:00 13 3 26 210° SW
Sa, 07.12. 19:00 11 2 29 200° S
Sa, 07.12. 13:00 14 3 36 230° SW
Ortszeit Stärke Spitze Richtung
km/h Bft. km/h Grad Sektor
Mo, 09.12. 11:30 13 3 24 190° S
Mo, 09.12. 11:20 13 3 - 190° S
Mo, 09.12. 11:10 11 2 - 180° S
Mo, 09.12. 11:00 11 2 22 190° S
Mo, 09.12. 10:50 11 2 - 190° S
Mo, 09.12. 10:40 11 2 - 180° S
Mo, 09.12. 10:30 13 3 20 180° S
Mo, 09.12. 10:00 11 2 22 200° S
Mo, 09.12. 9:30 11 2 18 190° S
Mo, 09.12. 9:00 9 2 20 180° S
Mo, 09.12. 8:30 7 2 22 240° SW
Ortszeit Untergrenze Bedeckung Gattung
total tief tief mittel hoch
Mo, 09.12. 7:00 750 m 8/8 8/8 - - -
Mo, 09.12. 1:00 30 m 8/8 8/8 - - -
So, 08.12. 19:00 810 m 8/8 8/8 - - -
So, 08.12. 13:00 780 m 8/8 8/8 - - -
So, 08.12. 7:00 720 m 8/8 8/8 - - -
So, 08.12. 1:00 450 m 8/8 8/8 - - -
Sa, 07.12. 19:00 630 m 8/8 8/8 - - -
Sa, 07.12. 13:00 570 m 8/8 8/8 - - -
Ortszeit Bedeckungsgrad in Achtel und Wolkenuntergrenze
Mo, 09.12. 11:30 2(780m) 7(1440m) 7(1500m)
Mo, 09.12. 11:20 2(780m) 7(1440m) 7(1500m)
Mo, 09.12. 11:10 1(570m) 6(990m) 7(1500m)
Mo, 09.12. 11:00 2(570m) 7(960m) 8(1500m)
Mo, 09.12. 10:50 2(570m) 7(960m) 8(1500m)
Mo, 09.12. 10:40 6(660m) 7(840m) 8(1500m)
Mo, 09.12. 10:30 3(720m) 7(1380m) 7(1500m)
Mo, 09.12. 10:00 1(1500m)
Mo, 09.12. 9:30 keine Wolken
Mo, 09.12. 9:00 1(780m) 4(1440m) 7(7500m)
Mo, 09.12. 8:30 1(660m) 6(1470m) 7(6900m)
Ortszeit Luftdruck NN (hPa) Tendenz (hPa in 3 Std.)
Mo, 09.12. 7:00 1005 - 0,4
Mo, 09.12. 1:00 1005 0,0
So, 08.12. 19:00 1006 - 1,8
So, 08.12. 13:00 1011 - 2,5
So, 08.12. 7:00 1015 - 1,7
So, 08.12. 1:00 1018 - 0,4
Sa, 07.12. 19:00 1018 + 1,5
Sa, 07.12. 13:00 1016 + 0,9
Ortszeit Luftdruck NN (hPa) Tendenz (hPa in 3 Std.)
Mo, 09.12. 11:30 1005 - 0,8
Mo, 09.12. 11:20 1005 keine Meldung
Mo, 09.12. 11:10 1005 keine Meldung
Mo, 09.12. 11:00 1005 - 0,3
Mo, 09.12. 10:50 1005 keine Meldung
Mo, 09.12. 10:40 1005 keine Meldung
Mo, 09.12. 10:30 1005 - 0,2
Mo, 09.12. 10:00 1005 - 0,2
Mo, 09.12. 9:30 1005 + 0,1
Mo, 09.12. 9:00 1006 + 0,2
Mo, 09.12. 8:30 1006 + 0,1
Ortszeit Schneehöhe (cm)
Mo, 09.12. 7:00 0
Mo, 09.12. 1:00 0
So, 08.12. 19:00 0
So, 08.12. 13:00 0
So, 08.12. 7:00 0
So, 08.12. 1:00 0
Sa, 07.12. 19:00 0
Sa, 07.12. 13:00 0
Ortszeit Schneehöhe (cm)
Mo, 09.12. 11:30 0
Mo, 09.12. 11:20 0
Mo, 09.12. 11:10 0
Mo, 09.12. 11:00 0
Mo, 09.12. 10:50 0
Mo, 09.12. 10:40 0
Mo, 09.12. 10:30 0
Mo, 09.12. 10:00 0
Mo, 09.12. 9:30 0
Mo, 09.12. 9:00 0
Mo, 09.12. 8:30 0
Link zu dieser Seite / Seite empfehlen

Das Wetter in ...